sensor_id;sensor_type;location;lat;lon;timestamp;temperature;humidity
4314;DHT22;2170;48.794;9.182;2023-06-10T02:43:52;17.70;99.90
4314;DHT22;2170;48.794;9.182;2023-06-10T02:46:43;17.60;99.90
4314;DHT22;2170;48.794;9.182;2023-06-10T02:49:40;17.50;99.90
4314;DHT22;2170;48.794;9.182;2023-06-10T02:58:48;17.40;99.90
4314;DHT22;2170;48.794;9.182;2023-06-10T03:01:59;17.40;99.90
4314;DHT22;2170;48.794;9.182;2023-06-10T03:04:56;17.00;99.90
4314;DHT22;2170;48.794;9.182;2023-06-10T03:07:41;17.30;99.90
4314;DHT22;2170;48.794;9.182;2023-06-10T03:10:47;17.20;99.90
4314;DHT22;2170;48.794;9.182;2023-06-10T03:17:29;17.10;99.90
4314;DHT22;2170;48.794;9.182;2023-06-10T03:29:47;17.00;99.90
4314;DHT22;2170;48.794;9.182;2023-06-10T03:32:50;17.00;99.90
4314;DHT22;2170;48.794;9.182;2023-06-10T03:35:51;17.00;99.90
4314;DHT22;2170;48.794;9.182;2023-06-10T03:38:39;17.00;99.90
4314;DHT22;2170;48.794;9.182;2023-06-10T03:41:12;17.00;99.90
4314;DHT22;2170;48.794;9.182;2023-06-10T03:43:59;17.00;99.90
4314;DHT22;2170;48.794;9.182;2023-06-10T03:46:42;17.00;99.90
4314;DHT22;2170;48.794;9.182;2023-06-10T03:49:34;16.90;99.90
4314;DHT22;2170;48.794;9.182;2023-06-10T03:52:25;16.90;99.90
4314;DHT22;2170;48.794;9.182;2023-06-10T03:55:02;16.90;99.90
4314;DHT22;2170;48.794;9.182;2023-06-10T03:57:56;16.90;99.90
4314;DHT22;2170;48.794;9.182;2023-06-10T04:04:00;16.90;99.90
4314;DHT22;2170;48.794;9.182;2023-06-10T04:07:05;16.90;99.90
4314;DHT22;2170;48.794;9.182;2023-06-10T04:10:13;16.80;99.90
4314;DHT22;2170;48.794;9.182;2023-06-10T04:13:03;16.80;99.90
4314;DHT22;2170;48.794;9.182;2023-06-10T04:16:09;16.80;99.90
4314;DHT22;2170;48.794;9.182;2023-06-10T04:19:21;16.90;99.90
4314;DHT22;2170;48.794;9.182;2023-06-10T04:25:29;16.90;99.90
4314;DHT22;2170;48.794;9.182;2023-06-10T04:28:13;17.00;99.90
4314;DHT22;2170;48.794;9.182;2023-06-10T04:30:59;17.00;99.90
4314;DHT22;2170;48.794;9.182;2023-06-10T04:33:54;17.00;99.90
4314;DHT22;2170;48.794;9.182;2023-06-10T04:36:39;17.10;99.90
4314;DHT22;2170;48.794;9.182;2023-06-10T04:43:06;17.20;99.90
4314;DHT22;2170;48.794;9.182;2023-06-10T04:45:54;17.30;99.90
4314;DHT22;2170;48.794;9.182;2023-06-10T04:48:28;17.40;99.90
4314;DHT22;2170;48.794;9.182;2023-06-10T04:51:10;17.50;99.90
4314;DHT22;2170;48.794;9.182;2023-06-10T04:53:46;17.50;99.90
4314;DHT22;2170;48.794;9.182;2023-06-10T04:56:27;17.60;99.90
4314;DHT22;2170;48.794;9.182;2023-06-10T04:58:58;17.70;99.90
4314;DHT22;2170;48.794;9.182;2023-06-10T05:01:30;17.80;99.90
4314;DHT22;2170;48.794;9.182;2023-06-10T05:04:02;17.80;99.90
4314;DHT22;2170;48.794;9.182;2023-06-10T05:06:32;17.90;99.90
4314;DHT22;2170;48.794;9.182;2023-06-10T05:09:02;18.00;99.90
4314;DHT22;2170;48.794;9.182;2023-06-10T05:11:29;18.10;99.90
4314;DHT22;2170;48.794;9.182;2023-06-10T05:14:05;18.20;99.90
4314;DHT22;2170;48.794;9.182;2023-06-10T05:16:38;18.30;99.90
4314;DHT22;2170;48.794;9.182;2023-06-10T05:19:07;18.30;99.90
4314;DHT22;2170;48.794;9.182;2023-06-10T05:21:43;18.40;99.90
4314;DHT22;2170;48.794;9.182;2023-06-10T05:24:16;18.60;99.90
4314;DHT22;2170;48.794;9.182;2023-06-10T05:30:02;18.80;99.90
4314;DHT22;2170;48.794;9.182;2023-06-10T05:32:35;18.90;99.90
4314;DHT22;2170;48.794;9.182;2023-06-10T05:35:05;19.00;99.90
4314;DHT22;2170;48.794;9.182;2023-06-10T05:37:40;19.10;99.90
4314;DHT22;2170;48.794;9.182;2023-06-10T05:40:18;19.20;99.90
4314;DHT22;2170;48.794;9.182;2023-06-10T05:42:46;19.20;99.90
4314;DHT22;2170;48.794;9.182;2023-06-10T05:45:16;19.30;99.90
4314;DHT22;2170;48.794;9.182;2023-06-10T05:47:44;19.40;99.90
4314;DHT22;2170;48.794;9.182;2023-06-10T05:50:12;19.60;99.90
4314;DHT22;2170;48.794;9.182;2023-06-10T05:52:40;19.80;99.90
4314;DHT22;2170;48.794;9.182;2023-06-10T05:55:09;19.70;99.90
4314;DHT22;2170;48.794;9.182;2023-06-10T05:57:45;19.70;99.90
4314;DHT22;2170;48.794;9.182;2023-06-10T06:00:29;19.80;99.90
4314;DHT22;2170;48.794;9.182;2023-06-10T06:02:57;19.80;99.90
4314;DHT22;2170;48.794;9.182;2023-06-10T06:05:25;19.90;99.90
4314;DHT22;2170;48.794;9.182;2023-06-10T06:07:53;20.00;99.90
4314;DHT22;2170;48.794;9.182;2023-06-10T06:10:22;20.10;99.90
4314;DHT22;2170;48.794;9.182;2023-06-10T06:12:52;20.20;99.90
4314;DHT22;2170;48.794;9.182;2023-06-10T06:15:31;20.20;99.90
4314;DHT22;2170;48.794;9.182;2023-06-10T06:18:00;20.30;99.90
4314;DHT22;2170;48.794;9.182;2023-06-10T06:20:29;20.70;99.90
4314;DHT22;2170;48.794;9.182;2023-06-10T06:22:57;20.50;99.90
4314;DHT22;2170;48.794;9.182;2023-06-10T06:25:29;20.60;99.90
4314;DHT22;2170;48.794;9.182;2023-06-10T06:27:57;20.70;99.90
4314;DHT22;2170;48.794;9.182;2023-06-10T06:30:29;20.90;99.90
4314;DHT22;2170;48.794;9.182;2023-06-10T06:32:59;20.90;99.90
4314;DHT22;2170;48.794;9.182;2023-06-10T06:35:36;20.90;99.90
4314;DHT22;2170;48.794;9.182;2023-06-10T06:38:07;21.00;99.90
4314;DHT22;2170;48.794;9.182;2023-06-10T06:40:42;21.10;99.90
4314;DHT22;2170;48.794;9.182;2023-06-10T06:43:13;21.10;99.90
4314;DHT22;2170;48.794;9.182;2023-06-10T06:45:44;21.10;99.90
4314;DHT22;2170;48.794;9.182;2023-06-10T06:48:16;21.20;99.90
4314;DHT22;2170;48.794;9.182;2023-06-10T06:50:43;21.50;99.90
4314;DHT22;2170;48.794;9.182;2023-06-10T06:53:11;21.50;99.90
4314;DHT22;2170;48.794;9.182;2023-06-10T06:55:38;21.50;99.90
4314;DHT22;2170;48.794;9.182;2023-06-10T06:58:06;21.40;99.90
4314;DHT22;2170;48.794;9.182;2023-06-10T07:00:34;21.50;99.90
4314;DHT22;2170;48.794;9.182;2023-06-10T07:03:02;21.70;99.90
4314;DHT22;2170;48.794;9.182;2023-06-10T07:05:31;21.70;99.90
4314;DHT22;2170;48.794;9.182;2023-06-10T07:07:59;21.80;99.90
4314;DHT22;2170;48.794;9.182;2023-06-10T07:10:28;22.00;99.90
4314;DHT22;2170;48.794;9.182;2023-06-10T07:12:56;22.20;99.90
4314;DHT22;2170;48.794;9.182;2023-06-10T07:15:25;22.20;99.90
4314;DHT22;2170;48.794;9.182;2023-06-10T07:17:53;22.40;99.90
4314;DHT22;2170;48.794;9.182;2023-06-10T07:20:22;22.30;99.90
4314;DHT22;2170;48.794;9.182;2023-06-10T07:22:56;22.40;99.90
4314;DHT22;2170;48.794;9.182;2023-06-10T07:25:24;22.60;99.90
4314;DHT22;2170;48.794;9.182;2023-06-10T07:27:53;22.60;99.90
4314;DHT22;2170;48.794;9.182;2023-06-10T07:30:20;22.70;99.90
4314;DHT22;2170;48.794;9.182;2023-06-10T07:32:48;22.80;99.90
4314;DHT22;2170;48.794;9.182;2023-06-10T07:35:21;22.90;99.90
4314;DHT22;2170;48.794;9.182;2023-06-10T07:37:52;22.90;99.90
4314;DHT22;2170;48.794;9.182;2023-06-10T07:40:21;23.00;99.90
4314;DHT22;2170;48.794;9.182;2023-06-10T07:42:53;23.00;99.90
4314;DHT22;2170;48.794;9.182;2023-06-10T07:45:22;23.00;99.90
4314;DHT22;2170;48.794;9.182;2023-06-10T07:47:51;23.10;99.90
4314;DHT22;2170;48.794;9.182;2023-06-10T07:50:20;23.10;99.90
4314;DHT22;2170;48.794;9.182;2023-06-10T07:52:55;22.90;99.90
4314;DHT22;2170;48.794;9.182;2023-06-10T07:55:27;22.80;99.90
4314;DHT22;2170;48.794;9.182;2023-06-10T07:58:17;23.00;99.90
4314;DHT22;2170;48.794;9.182;2023-06-10T08:00:58;23.20;99.90
4314;DHT22;2170;48.794;9.182;2023-06-10T08:03:29;23.50;99.90
4314;DHT22;2170;48.794;9.182;2023-06-10T08:06:00;23.40;99.90
4314;DHT22;2170;48.794;9.182;2023-06-10T08:08:33;23.60;99.90
4314;DHT22;2170;48.794;9.182;2023-06-10T08:11:10;23.70;99.90
4314;DHT22;2170;48.794;9.182;2023-06-10T08:13:39;23.80;99.90
4314;DHT22;2170;48.794;9.182;2023-06-10T08:16:08;23.90;99.90
4314;DHT22;2170;48.794;9.182;2023-06-10T08:18:40;24.00;99.90
4314;DHT22;2170;48.794;9.182;2023-06-10T08:21:09;24.10;99.90
4314;DHT22;2170;48.794;9.182;2023-06-10T08:23:40;24.20;99.90
4314;DHT22;2170;48.794;9.182;2023-06-10T08:26:16;24.30;99.90
4314;DHT22;2170;48.794;9.182;2023-06-10T08:28:50;24.30;99.90
4314;DHT22;2170;48.794;9.182;2023-06-10T08:31:20;24.50;99.90
4314;DHT22;2170;48.794;9.182;2023-06-10T08:33:52;24.50;99.90
4314;DHT22;2170;48.794;9.182;2023-06-10T08:36:21;24.50;99.90
4314;DHT22;2170;48.794;9.182;2023-06-10T08:38:53;24.50;99.90
4314;DHT22;2170;48.794;9.182;2023-06-10T08:41:25;24.70;99.90
4314;DHT22;2170;48.794;9.182;2023-06-10T08:44:02;24.70;99.90
4314;DHT22;2170;48.794;9.182;2023-06-10T08:46:32;24.80;99.90
4314;DHT22;2170;48.794;9.182;2023-06-10T08:49:03;24.80;99.90
4314;DHT22;2170;48.794;9.182;2023-06-10T08:51:36;25.00;99.90
4314;DHT22;2170;48.794;9.182;2023-06-10T08:54:30;25.10;99.90
4314;DHT22;2170;48.794;9.182;2023-06-10T08:57:02;25.30;99.90
4314;DHT22;2170;48.794;9.182;2023-06-10T08:59:33;25.40;99.90
4314;DHT22;2170;48.794;9.182;2023-06-10T09:02:09;25.50;99.90
4314;DHT22;2170;48.794;9.182;2023-06-10T09:04:43;25.50;99.90
4314;DHT22;2170;48.794;9.182;2023-06-10T09:07:16;25.80;99.90
4314;DHT22;2170;48.794;9.182;2023-06-10T09:09:46;25.60;99.90
4314;DHT22;2170;48.794;9.182;2023-06-10T09:12:24;25.70;99.90
4314;DHT22;2170;48.794;9.182;2023-06-10T09:14:57;26.00;99.90
4314;DHT22;2170;48.794;9.182;2023-06-10T09:17:31;26.10;99.90
4314;DHT22;2170;48.794;9.182;2023-06-10T09:20:02;26.20;99.90
4314;DHT22;2170;48.794;9.182;2023-06-10T09:22:37;26.30;99.90
4314;DHT22;2170;48.794;9.182;2023-06-10T09:25:16;26.50;99.90
4314;DHT22;2170;48.794;9.182;2023-06-10T09:27:57;26.80;99.90
4314;DHT22;2170;48.794;9.182;2023-06-10T09:30:39;27.10;99.90
4314;DHT22;2170;48.794;9.182;2023-06-10T09:33:33;27.00;99.90
4314;DHT22;2170;48.794;9.182;2023-06-10T09:36:11;27.40;99.90
4314;DHT22;2170;48.794;9.182;2023-06-10T09:38:42;27.60;99.90
4314;DHT22;2170;48.794;9.182;2023-06-10T09:41:25;27.90;99.90
4314;DHT22;2170;48.794;9.182;2023-06-10T09:44:14;27.70;99.90
4314;DHT22;2170;48.794;9.182;2023-06-10T09:46:48;28.00;99.90
4314;DHT22;2170;48.794;9.182;2023-06-10T09:49:19;28.20;99.90
4314;DHT22;2170;48.794;9.182;2023-06-10T09:51:56;28.40;99.90
4314;DHT22;2170;48.794;9.182;2023-06-10T09:54:41;28.80;99.90
4314;DHT22;2170;48.794;9.182;2023-06-10T09:57:23;29.00;99.90
4314;DHT22;2170;48.794;9.182;2023-06-10T09:59:56;29.10;99.90
4314;DHT22;2170;48.794;9.182;2023-06-10T10:02:26;29.40;99.90
4314;DHT22;2170;48.794;9.182;2023-06-10T10:05:08;29.90;99.90
4314;DHT22;2170;48.794;9.182;2023-06-10T10:07:44;29.70;99.90
4314;DHT22;2170;48.794;9.182;2023-06-10T10:10:16;29.90;99.90
4314;DHT22;2170;48.794;9.182;2023-06-10T10:12:48;30.00;99.90
4314;DHT22;2170;48.794;9.182;2023-06-10T10:15:18;30.20;99.90
4314;DHT22;2170;48.794;9.182;2023-06-10T10:17:52;30.20;99.90
4314;DHT22;2170;48.794;9.182;2023-06-10T10:20:29;30.40;99.90
4314;DHT22;2170;48.794;9.182;2023-06-10T10:22:59;30.70;99.90
4314;DHT22;2170;48.794;9.182;2023-06-10T10:25:41;30.80;99.70
4314;DHT22;2170;48.794;9.182;2023-06-10T10:28:13;30.50;98.70
4314;DHT22;2170;48.794;9.182;2023-06-10T10:30:48;30.60;98.50
4314;DHT22;2170;48.794;9.182;2023-06-10T10:33:19;30.60;98.30
4314;DHT22;2170;48.794;9.182;2023-06-10T10:35:48;31.10;97.50
4314;DHT22;2170;48.794;9.182;2023-06-10T10:38:18;31.40;95.80
4314;DHT22;2170;48.794;9.182;2023-06-10T10:40:47;31.40;95.20
4314;DHT22;2170;48.794;9.182;2023-06-10T10:43:22;31.40;95.40
4314;DHT22;2170;48.794;9.182;2023-06-10T10:46:11;31.20;94.60
4314;DHT22;2170;48.794;9.182;2023-06-10T10:48:42;31.10;95.30
4314;DHT22;2170;48.794;9.182;2023-06-10T10:51:16;31.30;94.80
4314;DHT22;2170;48.794;9.182;2023-06-10T10:54:12;31.30;95.00
4314;DHT22;2170;48.794;9.182;2023-06-10T10:57:12;30.90;94.90
4314;DHT22;2170;48.794;9.182;2023-06-10T10:59:56;30.60;95.10
4314;DHT22;2170;48.794;9.182;2023-06-10T11:02:40;30.40;95.50
4314;DHT22;2170;48.794;9.182;2023-06-10T11:05:10;30.50;95.50
4314;DHT22;2170;48.794;9.182;2023-06-10T11:10:52;30.40;95.40
4314;DHT22;2170;48.794;9.182;2023-06-10T11:13:26;30.30;95.40
4314;DHT22;2170;48.794;9.182;2023-06-10T11:16:04;30.00;95.00
4314;DHT22;2170;48.794;9.182;2023-06-10T11:18:39;30.00;95.00
4314;DHT22;2170;48.794;9.182;2023-06-10T11:21:11;30.00;95.20
4314;DHT22;2170;48.794;9.182;2023-06-10T11:23:42;30.50;94.70
4314;DHT22;2170;48.794;9.182;2023-06-10T11:26:33;30.60;94.40
4314;DHT22;2170;48.794;9.182;2023-06-10T11:29:07;30.90;93.70
4314;DHT22;2170;48.794;9.182;2023-06-10T11:32:07;31.10;93.00
4314;DHT22;2170;48.794;9.182;2023-06-10T11:34:34;31.40;93.30
4314;DHT22;2170;48.794;9.182;2023-06-10T11:37:02;30.30;93.40
4314;DHT22;2170;48.794;9.182;2023-06-10T11:39:34;30.60;93.40
4314;DHT22;2170;48.794;9.182;2023-06-10T11:42:09;30.70;92.70
4314;DHT22;2170;48.794;9.182;2023-06-10T11:44:51;30.80;92.60
4314;DHT22;2170;48.794;9.182;2023-06-10T11:47:21;30.50;92.50
4314;DHT22;2170;48.794;9.182;2023-06-10T11:49:56;31.00;92.70
4314;DHT22;2170;48.794;9.182;2023-06-10T11:52:33;31.40;92.00
4314;DHT22;2170;48.794;9.182;2023-06-10T11:55:06;31.70;91.90
4314;DHT22;2170;48.794;9.182;2023-06-10T11:57:34;31.80;91.50
4314;DHT22;2170;48.794;9.182;2023-06-10T12:00:08;31.60;90.90
4314;DHT22;2170;48.794;9.182;2023-06-10T12:02:37;31.00;91.50
4314;DHT22;2170;48.794;9.182;2023-06-10T12:05:18;30.70;91.40
4314;DHT22;2170;48.794;9.182;2023-06-10T12:07:49;31.10;91.10
4314;DHT22;2170;48.794;9.182;2023-06-10T12:10:17;31.40;91.00
4314;DHT22;2170;48.794;9.182;2023-06-10T12:12:49;31.30;89.70
4314;DHT22;2170;48.794;9.182;2023-06-10T12:15:24;30.80;90.70
4314;DHT22;2170;48.794;9.182;2023-06-10T12:18:16;30.70;91.20
4314;DHT22;2170;48.794;9.182;2023-06-10T12:20:59;30.70;90.80
4314;DHT22;2170;48.794;9.182;2023-06-10T12:23:35;31.20;91.30
4314;DHT22;2170;48.794;9.182;2023-06-10T12:26:03;31.90;89.40
4314;DHT22;2170;48.794;9.182;2023-06-10T12:28:35;32.00;87.30
4314;DHT22;2170;48.794;9.182;2023-06-10T12:31:12;31.70;85.00
4314;DHT22;2170;48.794;9.182;2023-06-10T12:36:51;31.10;85.50
4314;DHT22;2170;48.794;9.182;2023-06-10T12:39:37;31.10;85.90
4314;DHT22;2170;48.794;9.182;2023-06-10T12:42:17;31.20;86.30
4314;DHT22;2170;48.794;9.182;2023-06-10T12:45:02;31.00;86.40
4314;DHT22;2170;48.794;9.182;2023-06-10T12:50:40;31.00;87.70
4314;DHT22;2170;48.794;9.182;2023-06-10T12:53:15;31.10;87.40
4314;DHT22;2170;48.794;9.182;2023-06-10T12:56:07;31.30;85.70
4314;DHT22;2170;48.794;9.182;2023-06-10T12:58:39;31.60;84.20
4314;DHT22;2170;48.794;9.182;2023-06-10T13:01:15;31.30;85.60
4314;DHT22;2170;48.794;9.182;2023-06-10T13:04:11;31.00;86.00
4314;DHT22;2170;48.794;9.182;2023-06-10T13:06:58;30.60;86.30
4314;DHT22;2170;48.794;9.182;2023-06-10T13:10:18;30.70;87.00
4314;DHT22;2170;48.794;9.182;2023-06-10T13:12:49;30.40;86.90
4314;DHT22;2170;48.794;9.182;2023-06-10T13:15:16;30.10;87.40
4314;DHT22;2170;48.794;9.182;2023-06-10T13:17:45;29.90;88.30
4314;DHT22;2170;48.794;9.182;2023-06-10T13:23:21;30.60;87.30
4314;DHT22;2170;48.794;9.182;2023-06-10T13:25:57;31.10;86.10
4314;DHT22;2170;48.794;9.182;2023-06-10T13:28:29;31.40;85.40
4314;DHT22;2170;48.794;9.182;2023-06-10T13:30:58;31.60;84.50
4314;DHT22;2170;48.794;9.182;2023-06-10T13:33:27;31.90;83.00
4314;DHT22;2170;48.794;9.182;2023-06-10T13:36:49;32.30;80.60
4314;DHT22;2170;48.794;9.182;2023-06-10T13:39:01;32.60;80.00
4314;DHT22;2170;48.794;9.182;2023-06-10T13:41:36;32.80;79.40
4314;DHT22;2170;48.794;9.182;2023-06-10T13:44:08;32.50;79.50
4314;DHT22;2170;48.794;9.182;2023-06-10T13:46:37;31.40;81.20
4314;DHT22;2170;48.794;9.182;2023-06-10T13:49:13;31.10;82.50
4314;DHT22;2170;48.794;9.182;2023-06-10T13:51:48;31.00;82.60
4314;DHT22;2170;48.794;9.182;2023-06-10T13:54:25;30.90;82.90
4314;DHT22;2170;48.794;9.182;2023-06-10T13:57:07;31.00;82.70
4314;DHT22;2170;48.794;9.182;2023-06-10T13:59:47;31.00;82.40
4314;DHT22;2170;48.794;9.182;2023-06-10T14:02:30;31.00;82.60
4314;DHT22;2170;48.794;9.182;2023-06-10T14:05:13;31.10;82.70
4314;DHT22;2170;48.794;9.182;2023-06-10T14:07:55;31.70;80.50
4314;DHT22;2170;48.794;9.182;2023-06-10T14:10:30;32.30;79.40
4314;DHT22;2170;48.794;9.182;2023-06-10T14:13:00;32.60;78.10
4314;DHT22;2170;48.794;9.182;2023-06-10T14:15:34;32.80;78.70
4314;DHT22;2170;48.794;9.182;2023-06-10T14:18:04;32.50;77.50
4314;DHT22;2170;48.794;9.182;2023-06-10T14:20:34;32.40;77.30
4314;DHT22;2170;48.794;9.182;2023-06-10T14:23:09;33.00;77.60
4314;DHT22;2170;48.794;9.182;2023-06-10T14:25:57;32.80;76.60
4314;DHT22;2170;48.794;9.182;2023-06-10T14:28:50;33.50;76.20
4314;DHT22;2170;48.794;9.182;2023-06-10T14:31:26;33.60;75.20
4314;DHT22;2170;48.794;9.182;2023-06-10T14:34:14;33.10;74.90
4314;DHT22;2170;48.794;9.182;2023-06-10T14:37:08;32.50;75.20
4314;DHT22;2170;48.794;9.182;2023-06-10T14:40:04;31.90;76.40
4314;DHT22;2170;48.794;9.182;2023-06-10T14:45:45;32.30;77.60
4314;DHT22;2170;48.794;9.182;2023-06-10T14:48:19;32.40;77.70
4314;DHT22;2170;48.794;9.182;2023-06-10T14:50:50;31.90;78.20
4314;DHT22;2170;48.794;9.182;2023-06-10T14:53:22;32.40;77.70
4314;DHT22;2170;48.794;9.182;2023-06-10T14:55:58;33.00;76.40
4314;DHT22;2170;48.794;9.182;2023-06-10T14:58:35;32.80;74.70
4314;DHT22;2170;48.794;9.182;2023-06-10T15:01:13;32.70;74.70
4314;DHT22;2170;48.794;9.182;2023-06-10T15:03:43;32.70;74.10
4314;DHT22;2170;48.794;9.182;2023-06-10T15:06:16;32.50;75.10
4314;DHT22;2170;48.794;9.182;2023-06-10T15:08:52;32.80;74.40
4314;DHT22;2170;48.794;9.182;2023-06-10T15:11:29;32.80;74.40
4314;DHT22;2170;48.794;9.182;2023-06-10T15:14:03;32.40;75.00
4314;DHT22;2170;48.794;9.182;2023-06-10T15:16:58;32.00;75.90
4314;DHT22;2170;48.794;9.182;2023-06-10T15:19:32;31.70;77.60
4314;DHT22;2170;48.794;9.182;2023-06-10T15:22:22;31.30;78.30
4314;DHT22;2170;48.794;9.182;2023-06-10T15:25:11;31.20;79.10
4314;DHT22;2170;48.794;9.182;2023-06-10T15:27:45;30.90;78.50
4314;DHT22;2170;48.794;9.182;2023-06-10T15:30:22;30.50;78.90
4314;DHT22;2170;48.794;9.182;2023-06-10T15:33:03;30.70;78.60
4314;DHT22;2170;48.794;9.182;2023-06-10T15:36:00;31.10;78.10
4314;DHT22;2170;48.794;9.182;2023-06-10T15:38:35;31.60;75.90
4314;DHT22;2170;48.794;9.182;2023-06-10T15:41:05;32.10;75.40
4314;DHT22;2170;48.794;9.182;2023-06-10T15:43:43;31.90;74.40
4314;DHT22;2170;48.794;9.182;2023-06-10T15:46:32;31.60;76.10
4314;DHT22;2170;48.794;9.182;2023-06-10T15:49:30;31.90;75.70
4314;DHT22;2170;48.794;9.182;2023-06-10T15:52:10;32.10;74.80
4314;DHT22;2170;48.794;9.182;2023-06-10T15:55:04;32.10;74.70
4314;DHT22;2170;48.794;9.182;2023-06-10T15:57:38;32.60;74.60
4314;DHT22;2170;48.794;9.182;2023-06-10T16:00:15;32.60;74.30
4314;DHT22;2170;48.794;9.182;2023-06-10T16:03:09;32.50;74.30
4314;DHT22;2170;48.794;9.182;2023-06-10T16:05:49;32.40;74.40
4314;DHT22;2170;48.794;9.182;2023-06-10T16:08:27;32.40;74.30
4314;DHT22;2170;48.794;9.182;2023-06-10T16:11:00;32.30;74.80
4314;DHT22;2170;48.794;9.182;2023-06-10T16:14:18;32.60;74.00
4314;DHT22;2170;48.794;9.182;2023-06-10T16:20:40;32.90;72.50
4314;DHT22;2170;48.794;9.182;2023-06-10T16:23:17;32.60;72.70
4314;DHT22;2170;48.794;9.182;2023-06-10T16:26:02;32.30;73.90
4314;DHT22;2170;48.794;9.182;2023-06-10T16:28:31;32.50;73.80
4314;DHT22;2170;48.794;9.182;2023-06-10T16:31:25;32.10;74.60
4314;DHT22;2170;48.794;9.182;2023-06-10T16:33:57;32.30;74.90
4314;DHT22;2170;48.794;9.182;2023-06-10T16:36:34;32.20;74.60
4314;DHT22;2170;48.794;9.182;2023-06-10T16:39:14;32.30;74.50
4314;DHT22;2170;48.794;9.182;2023-06-10T16:41:48;31.70;75.70
4314;DHT22;2170;48.794;9.182;2023-06-10T16:44:18;32.10;73.70
4314;DHT22;2170;48.794;9.182;2023-06-10T16:46:54;32.20;72.50
4314;DHT22;2170;48.794;9.182;2023-06-10T16:49:24;32.20;72.50
4314;DHT22;2170;48.794;9.182;2023-06-10T16:52:01;32.10;72.00
4314;DHT22;2170;48.794;9.182;2023-06-10T16:54:39;32.30;72.40
4314;DHT22;2170;48.794;9.182;2023-06-10T16:57:08;32.30;72.70
4314;DHT22;2170;48.794;9.182;2023-06-10T16:59:48;32.40;73.30
4314;DHT22;2170;48.794;9.182;2023-06-10T17:02:17;32.40;73.60
4314;DHT22;2170;48.794;9.182;2023-06-10T17:04:55;32.10;74.60
4314;DHT22;2170;48.794;9.182;2023-06-10T17:07:31;32.00;73.50
4314;DHT22;2170;48.794;9.182;2023-06-10T17:10:15;31.90;74.40
4314;DHT22;2170;48.794;9.182;2023-06-10T17:13:06;32.10;74.60
4314;DHT22;2170;48.794;9.182;2023-06-10T17:15:36;32.00;74.00
4314;DHT22;2170;48.794;9.182;2023-06-10T17:18:10;32.10;74.10
4314;DHT22;2170;48.794;9.182;2023-06-10T17:20:42;32.10;73.80
4314;DHT22;2170;48.794;9.182;2023-06-10T17:23:14;31.80;74.20
4314;DHT22;2170;48.794;9.182;2023-06-10T17:25:43;32.20;73.90
4314;DHT22;2170;48.794;9.182;2023-06-10T17:28:15;32.10;74.40
4314;DHT22;2170;48.794;9.182;2023-06-10T17:30:44;32.10;74.00
4314;DHT22;2170;48.794;9.182;2023-06-10T17:33:20;31.90;74.20
4314;DHT22;2170;48.794;9.182;2023-06-10T17:35:51;31.80;75.60
4314;DHT22;2170;48.794;9.182;2023-06-10T17:38:22;31.90;74.90
4314;DHT22;2170;48.794;9.182;2023-06-10T17:41:09;31.80;74.10
4314;DHT22;2170;48.794;9.182;2023-06-10T17:43:51;31.70;75.10
4314;DHT22;2170;48.794;9.182;2023-06-10T17:46:39;31.60;74.70
4314;DHT22;2170;48.794;9.182;2023-06-10T17:49:12;31.40;75.40
4314;DHT22;2170;48.794;9.182;2023-06-10T17:51:53;31.10;76.30
4314;DHT22;2170;48.794;9.182;2023-06-10T17:54:23;30.80;76.80
4314;DHT22;2170;48.794;9.182;2023-06-10T17:56:54;30.60;77.40
4314;DHT22;2170;48.794;9.182;2023-06-10T17:59:24;30.30;78.10
4314;DHT22;2170;48.794;9.182;2023-06-10T18:01:59;30.00;79.00
4314;DHT22;2170;48.794;9.182;2023-06-10T18:04:31;30.00;79.30
4314;DHT22;2170;48.794;9.182;2023-06-10T18:06:59;29.90;79.90
4314;DHT22;2170;48.794;9.182;2023-06-10T18:09:30;29.80;80.40
4314;DHT22;2170;48.794;9.182;2023-06-10T18:12:01;29.50;81.00
4314;DHT22;2170;48.794;9.182;2023-06-10T18:14:32;29.30;81.50
4314;DHT22;2170;48.794;9.182;2023-06-10T18:17:01;29.20;82.10
4314;DHT22;2170;48.794;9.182;2023-06-10T18:19:29;29.00;82.20
4314;DHT22;2170;48.794;9.182;2023-06-10T18:21:57;28.90;83.50
4314;DHT22;2170;48.794;9.182;2023-06-10T18:24:26;28.80;82.90
4314;DHT22;2170;48.794;9.182;2023-06-10T18:26:56;28.70;83.00
4314;DHT22;2170;48.794;9.182;2023-06-10T18:29:24;28.60;83.60
4314;DHT22;2170;48.794;9.182;2023-06-10T18:31:52;28.40;83.90
4314;DHT22;2170;48.794;9.182;2023-06-10T18:34:22;28.30;84.50
4314;DHT22;2170;48.794;9.182;2023-06-10T18:36:51;28.20;84.10
4314;DHT22;2170;48.794;9.182;2023-06-10T18:39:32;28.10;84.50
4314;DHT22;2170;48.794;9.182;2023-06-10T18:42:06;28.00;85.10
4314;DHT22;2170;48.794;9.182;2023-06-10T18:44:38;27.90;85.30
4314;DHT22;2170;48.794;9.182;2023-06-10T18:47:06;27.80;85.80
4314;DHT22;2170;48.794;9.182;2023-06-10T18:49:35;27.70;86.10
4314;DHT22;2170;48.794;9.182;2023-06-10T18:52:07;27.60;86.00
4314;DHT22;2170;48.794;9.182;2023-06-10T18:54:35;27.50;86.70
4314;DHT22;2170;48.794;9.182;2023-06-10T18:57:05;27.50;87.00
4314;DHT22;2170;48.794;9.182;2023-06-10T18:59:34;27.40;87.90
4314;DHT22;2170;48.794;9.182;2023-06-10T19:02:02;27.30;87.80
4314;DHT22;2170;48.794;9.182;2023-06-10T19:04:29;27.30;87.90
4314;DHT22;2170;48.794;9.182;2023-06-10T19:06:58;27.20;88.20
4314;DHT22;2170;48.794;9.182;2023-06-10T19:09:26;27.10;88.60
4314;DHT22;2170;48.794;9.182;2023-06-10T19:11:54;27.00;89.10
4314;DHT22;2170;48.794;9.182;2023-06-10T19:14:25;26.90;89.60
4314;DHT22;2170;48.794;9.182;2023-06-10T19:16:54;26.70;90.10
4314;DHT22;2170;48.794;9.182;2023-06-10T19:19:23;26.60;90.10
4314;DHT22;2170;48.794;9.182;2023-06-10T19:21:56;26.60;90.50
4314;DHT22;2170;48.794;9.182;2023-06-10T19:24:25;26.50;90.80
4314;DHT22;2170;48.794;9.182;2023-06-10T19:26:53;26.40;91.00
4314;DHT22;2170;48.794;9.182;2023-06-10T19:29:23;26.40;91.20
4314;DHT22;2170;48.794;9.182;2023-06-10T19:31:51;26.30;91.60
4314;DHT22;2170;48.794;9.182;2023-06-10T19:34:19;26.20;91.80
4314;DHT22;2170;48.794;9.182;2023-06-10T19:36:47;26.10;92.00
4314;DHT22;2170;48.794;9.182;2023-06-10T19:39:18;26.00;92.10
4314;DHT22;2170;48.794;9.182;2023-06-10T19:41:46;26.00;92.60
4314;DHT22;2170;48.794;9.182;2023-06-10T19:44:14;25.90;92.80
4314;DHT22;2170;48.794;9.182;2023-06-10T19:46:48;25.80;92.90
4314;DHT22;2170;48.794;9.182;2023-06-10T19:49:16;25.70;93.30
4314;DHT22;2170;48.794;9.182;2023-06-10T19:51:45;25.70;93.40
4314;DHT22;2170;48.794;9.182;2023-06-10T19:54:20;25.50;93.60
4314;DHT22;2170;48.794;9.182;2023-06-10T19:56:52;25.50;93.80
4314;DHT22;2170;48.794;9.182;2023-06-10T19:59:26;25.50;94.10
4314;DHT22;2170;48.794;9.182;2023-06-10T20:01:57;25.50;94.20
4314;DHT22;2170;48.794;9.182;2023-06-10T20:04:28;25.50;94.50
4314;DHT22;2170;48.794;9.182;2023-06-10T20:09:55;25.30;95.10
4314;DHT22;2170;48.794;9.182;2023-06-10T20:12:23;25.20;95.60
4314;DHT22;2170;48.794;9.182;2023-06-10T20:14:54;25.10;95.90
4314;DHT22;2170;48.794;9.182;2023-06-10T20:17:26;25.00;96.10
4314;DHT22;2170;48.794;9.182;2023-06-10T20:19:55;24.90;96.70
4314;DHT22;2170;48.794;9.182;2023-06-10T20:22:25;24.80;97.10
4314;DHT22;2170;48.794;9.182;2023-06-10T20:24:54;24.70;97.40
4314;DHT22;2170;48.794;9.182;2023-06-10T20:27:25;24.60;97.80
4314;DHT22;2170;48.794;9.182;2023-06-10T20:29:54;24.70;98.00
4314;DHT22;2170;48.794;9.182;2023-06-10T20:32:29;24.70;98.20
4314;DHT22;2170;48.794;9.182;2023-06-10T20:35:01;24.60;98.30
4314;DHT22;2170;48.794;9.182;2023-06-10T20:40:29;24.40;99.20